Enid, Montana
Current Conditions -  °F | °C
As of 3:35 AM on Thursday 23 Oct 2014 (Local Time) from KSDY Reporting Station
Clear Clear  
Wind Chill: 29°   Ceiling: Unl
Heat Index: 36°   Visibility: 10mi
Dew Point: 30°   Wind: 8mph
Humidity: 81%   Direction: 170°S
Pressure: 29.88"   Gusts: NA
Location:  47.758°N, 104.739°W
Report Text: KSDY 230935Z AUTO 17007KT 10SM CLR 02/M01 A2988 RMK AO1
Loading
Personal Weather Stations






























Interactive Weather Map
Tropical Storm Tracking
New forecast layout! Learn more

10-Day Weather Forecast

Advertisements
Track Severe Weather on mobile